sensor_id;sensor_type;location;lat;lon;timestamp;temperature;humidity
43049;DHT22;28673;44.412;11.918;2024-03-06T00:02:07;10.00;99.90
43049;DHT22;28673;44.412;11.918;2024-03-06T00:04:33;10.00;99.90
43049;DHT22;28673;44.412;11.918;2024-03-06T00:06:59;9.90;99.90
43049;DHT22;28673;44.412;11.918;2024-03-06T00:09:26;9.90;99.90
43049;DHT22;28673;44.412;11.918;2024-03-06T00:11:55;9.80;99.90
43049;DHT22;28673;44.412;11.918;2024-03-06T00:14:21;9.70;99.90
43049;DHT22;28673;44.412;11.918;2024-03-06T00:16:48;9.70;99.90
43049;DHT22;28673;44.412;11.918;2024-03-06T00:19:19;9.60;99.90
43049;DHT22;28673;44.412;11.918;2024-03-06T00:21:45;9.60;99.90
43049;DHT22;28673;44.412;11.918;2024-03-06T00:24:14;9.50;99.90
43049;DHT22;28673;44.412;11.918;2024-03-06T00:26:46;9.50;99.90
43049;DHT22;28673;44.412;11.918;2024-03-06T00:29:13;9.40;99.90
43049;DHT22;28673;44.412;11.918;2024-03-06T00:31:43;9.40;99.90
43049;DHT22;28673;44.412;11.918;2024-03-06T00:34:10;9.30;99.90
43049;DHT22;28673;44.412;11.918;2024-03-06T00:36:37;9.30;99.90
43049;DHT22;28673;44.412;11.918;2024-03-06T00:39:03;9.20;99.90
43049;DHT22;28673;44.412;11.918;2024-03-06T00:41:30;9.10;99.90
43049;DHT22;28673;44.412;11.918;2024-03-06T00:43:56;9.10;99.90
43049;DHT22;28673;44.412;11.918;2024-03-06T00:46:23;9.10;99.90
43049;DHT22;28673;44.412;11.918;2024-03-06T00:48:48;9.00;99.90
43049;DHT22;28673;44.412;11.918;2024-03-06T00:51:14;9.10;99.90
43049;DHT22;28673;44.412;11.918;2024-03-06T00:53:40;9.00;99.90
43049;DHT22;28673;44.412;11.918;2024-03-06T00:56:07;9.00;99.90
43049;DHT22;28673;44.412;11.918;2024-03-06T00:58:33;9.00;99.90
43049;DHT22;28673;44.412;11.918;2024-03-06T01:00:59;9.00;99.90
43049;DHT22;28673;44.412;11.918;2024-03-06T01:03:24;9.00;99.90
43049;DHT22;28673;44.412;11.918;2024-03-06T01:05:50;9.10;99.90
43049;DHT22;28673;44.412;11.918;2024-03-06T01:08:19;9.00;99.90
43049;DHT22;28673;44.412;11.918;2024-03-06T01:10:44;9.00;99.90
43049;DHT22;28673;44.412;11.918;2024-03-06T01:13:10;9.00;99.90
43049;DHT22;28673;44.412;11.918;2024-03-06T01:15:37;8.90;99.90
43049;DHT22;28673;44.412;11.918;2024-03-06T01:18:03;8.90;99.90
43049;DHT22;28673;44.412;11.918;2024-03-06T01:20:29;8.90;99.90
43049;DHT22;28673;44.412;11.918;2024-03-06T01:22:55;8.90;99.90
43049;DHT22;28673;44.412;11.918;2024-03-06T01:25:21;8.80;99.90
43049;DHT22;28673;44.412;11.918;2024-03-06T01:27:48;8.80;99.90
43049;DHT22;28673;44.412;11.918;2024-03-06T01:30:14;8.70;99.90
43049;DHT22;28673;44.412;11.918;2024-03-06T01:32:40;8.70;99.90
43049;DHT22;28673;44.412;11.918;2024-03-06T01:35:06;8.70;99.90
43049;DHT22;28673;44.412;11.918;2024-03-06T01:37:32;8.60;99.90
43049;DHT22;28673;44.412;11.918;2024-03-06T01:39:58;8.60;99.90
43049;DHT22;28673;44.412;11.918;2024-03-06T01:42:24;8.50;99.90
43049;DHT22;28673;44.412;11.918;2024-03-06T01:44:50;8.50;99.90
43049;DHT22;28673;44.412;11.918;2024-03-06T01:47:15;8.40;99.90
43049;DHT22;28673;44.412;11.918;2024-03-06T01:49:42;8.40;99.90
43049;DHT22;28673;44.412;11.918;2024-03-06T01:52:11;8.40;99.90
43049;DHT22;28673;44.412;11.918;2024-03-06T01:54:38;8.30;99.90
43049;DHT22;28673;44.412;11.918;2024-03-06T01:57:05;8.30;99.90
43049;DHT22;28673;44.412;11.918;2024-03-06T01:59:32;8.20;99.90
43049;DHT22;28673;44.412;11.918;2024-03-06T02:01:58;8.20;99.90
43049;DHT22;28673;44.412;11.918;2024-03-06T02:04:26;8.10;99.90
43049;DHT22;28673;44.412;11.918;2024-03-06T02:06:54;8.10;99.90
43049;DHT22;28673;44.412;11.918;2024-03-06T02:09:20;8.10;99.90
43049;DHT22;28673;44.412;11.918;2024-03-06T02:11:45;8.10;99.90
43049;DHT22;28673;44.412;11.918;2024-03-06T02:14:12;8.00;99.90
43049;DHT22;28673;44.412;11.918;2024-03-06T02:16:38;8.00;99.90
43049;DHT22;28673;44.412;11.918;2024-03-06T02:19:07;8.00;99.90
43049;DHT22;28673;44.412;11.918;2024-03-06T02:21:33;7.90;99.90
43049;DHT22;28673;44.412;11.918;2024-03-06T02:24:00;7.90;99.90
43049;DHT22;28673;44.412;11.918;2024-03-06T02:26:25;7.90;99.90
43049;DHT22;28673;44.412;11.918;2024-03-06T02:28:52;7.90;99.90
43049;DHT22;28673;44.412;11.918;2024-03-06T02:31:19;7.80;99.90
43049;DHT22;28673;44.412;11.918;2024-03-06T02:33:46;7.80;99.90
43049;DHT22;28673;44.412;11.918;2024-03-06T02:36:13;7.80;99.90
43049;DHT22;28673;44.412;11.918;2024-03-06T02:38:39;7.80;99.90
43049;DHT22;28673;44.412;11.918;2024-03-06T02:41:04;7.70;99.90
43049;DHT22;28673;44.412;11.918;2024-03-06T02:43:32;7.70;99.90
43049;DHT22;28673;44.412;11.918;2024-03-06T02:45:58;7.70;99.90
43049;DHT22;28673;44.412;11.918;2024-03-06T02:48:24;7.60;99.90
43049;DHT22;28673;44.412;11.918;2024-03-06T02:50:50;7.60;99.90
43049;DHT22;28673;44.412;11.918;2024-03-06T02:53:16;7.60;99.90
43049;DHT22;28673;44.412;11.918;2024-03-06T02:55:41;7.60;99.90
43049;DHT22;28673;44.412;11.918;2024-03-06T02:58:07;7.60;99.90
43049;DHT22;28673;44.412;11.918;2024-03-06T03:00:33;7.60;99.90
43049;DHT22;28673;44.412;11.918;2024-03-06T03:02:58;7.70;99.90
43049;DHT22;28673;44.412;11.918;2024-03-06T03:05:24;7.60;99.90
43049;DHT22;28673;44.412;11.918;2024-03-06T03:07:50;7.60;99.90
43049;DHT22;28673;44.412;11.918;2024-03-06T03:10:16;7.60;99.90
43049;DHT22;28673;44.412;11.918;2024-03-06T03:12:42;7.60;99.90
43049;DHT22;28673;44.412;11.918;2024-03-06T03:15:09;7.60;99.90
43049;DHT22;28673;44.412;11.918;2024-03-06T03:17:35;7.60;99.90
43049;DHT22;28673;44.412;11.918;2024-03-06T03:20:04;7.60;99.90
43049;DHT22;28673;44.412;11.918;2024-03-06T03:22:40;7.50;99.90
43049;DHT22;28673;44.412;11.918;2024-03-06T03:25:10;7.50;99.90
43049;DHT22;28673;44.412;11.918;2024-03-06T03:27:37;7.50;99.90
43049;DHT22;28673;44.412;11.918;2024-03-06T03:30:06;7.50;99.90
43049;DHT22;28673;44.412;11.918;2024-03-06T03:32:32;7.50;99.90
43049;DHT22;28673;44.412;11.918;2024-03-06T03:34:58;7.50;99.90
43049;DHT22;28673;44.412;11.918;2024-03-06T03:37:24;7.40;99.90
43049;DHT22;28673;44.412;11.918;2024-03-06T03:39:49;7.40;99.90
43049;DHT22;28673;44.412;11.918;2024-03-06T03:42:15;7.40;99.90
43049;DHT22;28673;44.412;11.918;2024-03-06T03:44:41;7.40;99.90
43049;DHT22;28673;44.412;11.918;2024-03-06T03:47:07;7.40;99.90
43049;DHT22;28673;44.412;11.918;2024-03-06T03:49:33;7.30;99.90
43049;DHT22;28673;44.412;11.918;2024-03-06T03:51:59;7.30;99.90
43049;DHT22;28673;44.412;11.918;2024-03-06T03:54:25;7.30;99.90
43049;DHT22;28673;44.412;11.918;2024-03-06T03:56:50;7.20;99.90
43049;DHT22;28673;44.412;11.918;2024-03-06T03:59:16;7.30;99.90
43049;DHT22;28673;44.412;11.918;2024-03-06T04:01:45;7.20;99.90
43049;DHT22;28673;44.412;11.918;2024-03-06T04:04:12;7.20;99.90
43049;DHT22;28673;44.412;11.918;2024-03-06T04:06:38;7.20;99.90
43049;DHT22;28673;44.412;11.918;2024-03-06T04:09:03;7.20;99.90
43049;DHT22;28673;44.412;11.918;2024-03-06T04:11:30;7.20;99.90
43049;DHT22;28673;44.412;11.918;2024-03-06T04:13:59;7.20;99.90
43049;DHT22;28673;44.412;11.918;2024-03-06T04:16:25;7.20;99.90
43049;DHT22;28673;44.412;11.918;2024-03-06T04:18:51;7.10;99.90
43049;DHT22;28673;44.412;11.918;2024-03-06T04:21:17;7.10;99.90
43049;DHT22;28673;44.412;11.918;2024-03-06T04:23:44;7.10;99.90
43049;DHT22;28673;44.412;11.918;2024-03-06T04:26:09;7.10;99.90
43049;DHT22;28673;44.412;11.918;2024-03-06T04:28:36;7.10;99.90
43049;DHT22;28673;44.412;11.918;2024-03-06T04:31:02;7.20;99.90
43049;DHT22;28673;44.412;11.918;2024-03-06T04:33:27;7.10;99.90
43049;DHT22;28673;44.412;11.918;2024-03-06T04:35:53;7.20;99.90
43049;DHT22;28673;44.412;11.918;2024-03-06T04:38:19;7.20;99.90
43049;DHT22;28673;44.412;11.918;2024-03-06T04:40:45;7.30;99.90
43049;DHT22;28673;44.412;11.918;2024-03-06T04:43:11;7.40;99.90
43049;DHT22;28673;44.412;11.918;2024-03-06T04:45:36;7.40;99.90
43049;DHT22;28673;44.412;11.918;2024-03-06T04:48:02;7.40;99.90
43049;DHT22;28673;44.412;11.918;2024-03-06T04:50:28;7.50;99.90
43049;DHT22;28673;44.412;11.918;2024-03-06T04:52:54;7.50;99.90
43049;DHT22;28673;44.412;11.918;2024-03-06T04:55:21;7.60;99.90
43049;DHT22;28673;44.412;11.918;2024-03-06T04:57:48;7.50;99.90
43049;DHT22;28673;44.412;11.918;2024-03-06T05:00:15;7.50;99.90
43049;DHT22;28673;44.412;11.918;2024-03-06T05:02:41;7.40;99.90
43049;DHT22;28673;44.412;11.918;2024-03-06T05:05:08;7.40;99.90
43049;DHT22;28673;44.412;11.918;2024-03-06T05:07:34;7.40;99.90
43049;DHT22;28673;44.412;11.918;2024-03-06T05:10:00;7.50;99.90
43049;DHT22;28673;44.412;11.918;2024-03-06T05:12:27;7.50;99.90
43049;DHT22;28673;44.412;11.918;2024-03-06T05:14:53;7.50;99.90
43049;DHT22;28673;44.412;11.918;2024-03-06T05:17:19;7.50;99.90
43049;DHT22;28673;44.412;11.918;2024-03-06T05:19:48;7.50;99.90
43049;DHT22;28673;44.412;11.918;2024-03-06T05:22:15;7.50;99.90
43049;DHT22;28673;44.412;11.918;2024-03-06T05:24:42;7.40;99.90
43049;DHT22;28673;44.412;11.918;2024-03-06T05:27:08;7.40;99.90
43049;DHT22;28673;44.412;11.918;2024-03-06T05:29:35;7.40;99.90
43049;DHT22;28673;44.412;11.918;2024-03-06T05:32:02;7.30;99.90
43049;DHT22;28673;44.412;11.918;2024-03-06T05:34:29;7.20;99.90
43049;DHT22;28673;44.412;11.918;2024-03-06T05:36:57;7.20;99.90
43049;DHT22;28673;44.412;11.918;2024-03-06T05:39:23;7.20;99.90
43049;DHT22;28673;44.412;11.918;2024-03-06T05:41:49;7.10;99.90
43049;DHT22;28673;44.412;11.918;2024-03-06T05:44:15;7.10;99.90
43049;DHT22;28673;44.412;11.918;2024-03-06T05:46:40;7.10;99.90
43049;DHT22;28673;44.412;11.918;2024-03-06T05:49:06;7.00;99.90
43049;DHT22;28673;44.412;11.918;2024-03-06T05:51:32;7.00;99.90
43049;DHT22;28673;44.412;11.918;2024-03-06T05:53:57;7.00;99.90
43049;DHT22;28673;44.412;11.918;2024-03-06T05:56:23;6.90;99.90
43049;DHT22;28673;44.412;11.918;2024-03-06T05:58:49;6.90;99.90
43049;DHT22;28673;44.412;11.918;2024-03-06T06:01:15;6.90;99.90
43049;DHT22;28673;44.412;11.918;2024-03-06T06:03:44;6.90;99.90
43049;DHT22;28673;44.412;11.918;2024-03-06T06:06:10;6.80;99.90
43049;DHT22;28673;44.412;11.918;2024-03-06T06:08:35;6.80;99.90
43049;DHT22;28673;44.412;11.918;2024-03-06T06:11:04;6.90;99.90
43049;DHT22;28673;44.412;11.918;2024-03-06T06:13:30;6.80;99.90
43049;DHT22;28673;44.412;11.918;2024-03-06T06:15:58;6.80;99.90
43049;DHT22;28673;44.412;11.918;2024-03-06T06:18:24;6.80;99.90
43049;DHT22;28673;44.412;11.918;2024-03-06T06:20:49;6.80;99.90
43049;DHT22;28673;44.412;11.918;2024-03-06T06:23:15;6.80;99.90
43049;DHT22;28673;44.412;11.918;2024-03-06T06:25:41;6.90;99.90
43049;DHT22;28673;44.412;11.918;2024-03-06T06:28:06;6.90;99.90
43049;DHT22;28673;44.412;11.918;2024-03-06T06:30:32;7.00;99.90
43049;DHT22;28673;44.412;11.918;2024-03-06T06:32:58;7.00;99.90
43049;DHT22;28673;44.412;11.918;2024-03-06T06:35:24;7.10;99.90
43049;DHT22;28673;44.412;11.918;2024-03-06T06:37:50;7.20;99.90
43049;DHT22;28673;44.412;11.918;2024-03-06T06:40:16;7.30;99.90
43049;DHT22;28673;44.412;11.918;2024-03-06T06:42:47;7.40;99.90
43049;DHT22;28673;44.412;11.918;2024-03-06T06:45:15;7.50;99.90
43049;DHT22;28673;44.412;11.918;2024-03-06T06:47:41;7.60;99.90
43049;DHT22;28673;44.412;11.918;2024-03-06T06:50:08;7.70;99.90
43049;DHT22;28673;44.412;11.918;2024-03-06T06:52:43;7.70;99.90
43049;DHT22;28673;44.412;11.918;2024-03-06T06:55:09;7.80;99.90
43049;DHT22;28673;44.412;11.918;2024-03-06T06:57:37;7.90;99.90
43049;DHT22;28673;44.412;11.918;2024-03-06T07:00:04;8.00;99.90
43049;DHT22;28673;44.412;11.918;2024-03-06T07:02:42;8.10;99.90
43049;DHT22;28673;44.412;11.918;2024-03-06T07:05:09;8.30;99.90
43049;DHT22;28673;44.412;11.918;2024-03-06T07:07:36;8.40;99.90
43049;DHT22;28673;44.412;11.918;2024-03-06T07:10:02;8.50;99.90
43049;DHT22;28673;44.412;11.918;2024-03-06T07:12:29;8.60;99.90
43049;DHT22;28673;44.412;11.918;2024-03-06T07:14:54;8.80;99.90
43049;DHT22;28673;44.412;11.918;2024-03-06T07:17:20;8.80;99.90
43049;DHT22;28673;44.412;11.918;2024-03-06T07:19:46;8.90;99.90
43049;DHT22;28673;44.412;11.918;2024-03-06T07:22:12;9.00;99.90
43049;DHT22;28673;44.412;11.918;2024-03-06T07:24:38;9.10;99.90
43049;DHT22;28673;44.412;11.918;2024-03-06T07:27:04;9.20;99.90
43049;DHT22;28673;44.412;11.918;2024-03-06T07:29:30;9.30;99.90
43049;DHT22;28673;44.412;11.918;2024-03-06T07:31:56;9.40;99.90
43049;DHT22;28673;44.412;11.918;2024-03-06T07:34:22;9.50;99.90
43049;DHT22;28673;44.412;11.918;2024-03-06T07:36:48;9.60;99.90
43049;DHT22;28673;44.412;11.918;2024-03-06T07:39:19;9.70;99.90
43049;DHT22;28673;44.412;11.918;2024-03-06T07:41:45;9.90;99.90
43049;DHT22;28673;44.412;11.918;2024-03-06T07:44:11;10.00;99.90
43049;DHT22;28673;44.412;11.918;2024-03-06T07:46:37;10.10;99.90
43049;DHT22;28673;44.412;11.918;2024-03-06T07:49:03;10.20;99.90
43049;DHT22;28673;44.412;11.918;2024-03-06T07:51:33;10.30;99.90
43049;DHT22;28673;44.412;11.918;2024-03-06T07:53:58;10.40;99.90
43049;DHT22;28673;44.412;11.918;2024-03-06T07:56:27;10.50;99.90
43049;DHT22;28673;44.412;11.918;2024-03-06T07:58:53;10.60;99.90
43049;DHT22;28673;44.412;11.918;2024-03-06T08:01:20;10.70;99.90
43049;DHT22;28673;44.412;11.918;2024-03-06T08:03:46;10.80;99.90
43049;DHT22;28673;44.412;11.918;2024-03-06T08:06:12;10.90;99.90
43049;DHT22;28673;44.412;11.918;2024-03-06T08:08:41;11.00;99.90
43049;DHT22;28673;44.412;11.918;2024-03-06T08:11:07;11.00;99.90
43049;DHT22;28673;44.412;11.918;2024-03-06T08:13:36;11.10;99.90
43049;DHT22;28673;44.412;11.918;2024-03-06T08:16:02;11.20;99.90
43049;DHT22;28673;44.412;11.918;2024-03-06T08:18:31;11.30;99.90
43049;DHT22;28673;44.412;11.918;2024-03-06T08:20:57;11.40;99.90
43049;DHT22;28673;44.412;11.918;2024-03-06T08:23:23;11.40;99.90
43049;DHT22;28673;44.412;11.918;2024-03-06T08:25:50;11.50;99.90
43049;DHT22;28673;44.412;11.918;2024-03-06T08:28:16;11.60;99.90
43049;DHT22;28673;44.412;11.918;2024-03-06T08:30:42;11.60;99.90
43049;DHT22;28673;44.412;11.918;2024-03-06T08:33:09;11.70;99.90
43049;DHT22;28673;44.412;11.918;2024-03-06T08:35:35;11.80;99.90
43049;DHT22;28673;44.412;11.918;2024-03-06T08:38:01;11.90;99.90
43049;DHT22;28673;44.412;11.918;2024-03-06T08:40:27;12.00;99.90
43049;DHT22;28673;44.412;11.918;2024-03-06T08:42:54;12.10;99.90
43049;DHT22;28673;44.412;11.918;2024-03-06T08:45:20;12.20;99.90
43049;DHT22;28673;44.412;11.918;2024-03-06T08:47:46;12.20;99.90
43049;DHT22;28673;44.412;11.918;2024-03-06T08:50:13;12.30;99.90
43049;DHT22;28673;44.412;11.918;2024-03-06T08:52:41;12.40;99.90
43049;DHT22;28673;44.412;11.918;2024-03-06T08:55:07;12.40;99.90
43049;DHT22;28673;44.412;11.918;2024-03-06T08:57:34;12.50;99.90
43049;DHT22;28673;44.412;11.918;2024-03-06T09:00:00;12.60;99.90
43049;DHT22;28673;44.412;11.918;2024-03-06T09:02:25;12.60;99.90
43049;DHT22;28673;44.412;11.918;2024-03-06T09:04:52;12.70;99.90
43049;DHT22;28673;44.412;11.918;2024-03-06T09:07:18;12.80;99.90
43049;DHT22;28673;44.412;11.918;2024-03-06T09:09:45;12.90;99.90
43049;DHT22;28673;44.412;11.918;2024-03-06T09:12:10;12.90;99.90
43049;DHT22;28673;44.412;11.918;2024-03-06T09:14:39;13.00;99.90
43049;DHT22;28673;44.412;11.918;2024-03-06T09:17:07;13.10;99.90
43049;DHT22;28673;44.412;11.918;2024-03-06T09:19:36;13.20;99.90
43049;DHT22;28673;44.412;11.918;2024-03-06T09:22:01;13.40;99.90
43049;DHT22;28673;44.412;11.918;2024-03-06T09:24:28;13.50;99.90
43049;DHT22;28673;44.412;11.918;2024-03-06T09:26:54;13.80;99.90
43049;DHT22;28673;44.412;11.918;2024-03-06T09:29:20;14.10;99.90
43049;DHT22;28673;44.412;11.918;2024-03-06T09:31:47;14.30;99.90
43049;DHT22;28673;44.412;11.918;2024-03-06T09:34:16;14.60;99.90
43049;DHT22;28673;44.412;11.918;2024-03-06T09:36:46;14.90;99.90
43049;DHT22;28673;44.412;11.918;2024-03-06T09:39:12;15.10;99.90
43049;DHT22;28673;44.412;11.918;2024-03-06T09:41:45;15.40;99.90
43049;DHT22;28673;44.412;11.918;2024-03-06T09:44:12;15.60;99.90
43049;DHT22;28673;44.412;11.918;2024-03-06T09:46:44;15.70;97.30
43049;DHT22;28673;44.412;11.918;2024-03-06T09:49:16;15.90;98.50
43049;DHT22;28673;44.412;11.918;2024-03-06T09:51:47;16.10;99.30
43049;DHT22;28673;44.412;11.918;2024-03-06T09:54:16;16.30;98.60
43049;DHT22;28673;44.412;11.918;2024-03-06T09:57:03;16.50;97.10
43049;DHT22;28673;44.412;11.918;2024-03-06T09:59:29;16.60;98.80
43049;DHT22;28673;44.412;11.918;2024-03-06T10:01:57;16.90;98.30
43049;DHT22;28673;44.412;11.918;2024-03-06T10:04:27;17.20;98.30
43049;DHT22;28673;44.412;11.918;2024-03-06T10:06:55;17.40;97.30
43049;DHT22;28673;44.412;11.918;2024-03-06T10:09:21;17.50;96.30
43049;DHT22;28673;44.412;11.918;2024-03-06T10:11:47;17.70;96.60
43049;DHT22;28673;44.412;11.918;2024-03-06T10:14:14;17.90;96.60
43049;DHT22;28673;44.412;11.918;2024-03-06T10:16:53;18.10;96.00
43049;DHT22;28673;44.412;11.918;2024-03-06T10:19:20;18.30;94.80
43049;DHT22;28673;44.412;11.918;2024-03-06T10:21:49;18.40;94.90
43049;DHT22;28673;44.412;11.918;2024-03-06T10:24:29;18.50;93.80
43049;DHT22;28673;44.412;11.918;2024-03-06T10:26:57;18.70;94.00
43049;DHT22;28673;44.412;11.918;2024-03-06T10:29:25;18.70;94.00
43049;DHT22;28673;44.412;11.918;2024-03-06T10:31:55;18.80;94.30
43049;DHT22;28673;44.412;11.918;2024-03-06T10:34:24;19.00;92.70
43049;DHT22;28673;44.412;11.918;2024-03-06T10:37:01;19.10;94.20
43049;DHT22;28673;44.412;11.918;2024-03-06T10:39:30;19.20;91.10
43049;DHT22;28673;44.412;11.918;2024-03-06T10:41:57;19.30;92.50
43049;DHT22;28673;44.412;11.918;2024-03-06T10:44:27;19.40;93.20
43049;DHT22;28673;44.412;11.918;2024-03-06T10:46:59;19.50;91.80
43049;DHT22;28673;44.412;11.918;2024-03-06T10:49:26;19.70;92.30
43049;DHT22;28673;44.412;11.918;2024-03-06T10:51:59;19.70;92.50
43049;DHT22;28673;44.412;11.918;2024-03-06T10:54:30;19.90;92.20
43049;DHT22;28673;44.412;11.918;2024-03-06T10:56:56;20.00;90.90
43049;DHT22;28673;44.412;11.918;2024-03-06T10:59:25;20.10;91.50
43049;DHT22;28673;44.412;11.918;2024-03-06T11:01:54;20.20;89.90
43049;DHT22;28673;44.412;11.918;2024-03-06T11:04:28;20.40;91.20
43049;DHT22;28673;44.412;11.918;2024-03-06T11:07:03;20.50;91.20
43049;DHT22;28673;44.412;11.918;2024-03-06T11:09:38;20.50;90.70
43049;DHT22;28673;44.412;11.918;2024-03-06T11:12:05;20.70;90.60
43049;DHT22;28673;44.412;11.918;2024-03-06T11:14:37;20.90;90.90
43049;DHT22;28673;44.412;11.918;2024-03-06T11:17:09;21.10;90.50
43049;DHT22;28673;44.412;11.918;2024-03-06T11:20:07;21.40;90.60
43049;DHT22;28673;44.412;11.918;2024-03-06T11:28:18;21.90;88.50
43049;DHT22;28673;44.412;11.918;2024-03-06T11:30:47;22.10;89.00
43049;DHT22;28673;44.412;11.918;2024-03-06T11:33:15;22.20;86.30
43049;DHT22;28673;44.412;11.918;2024-03-06T11:36:16;22.20;85.90
43049;DHT22;28673;44.412;11.918;2024-03-06T11:39:08;22.20;84.50
43049;DHT22;28673;44.412;11.918;2024-03-06T11:41:48;22.20;85.70
43049;DHT22;28673;44.412;11.918;2024-03-06T11:44:18;22.20;85.30
43049;DHT22;28673;44.412;11.918;2024-03-06T11:46:50;22.20;86.30
43049;DHT22;28673;44.412;11.918;2024-03-06T11:49:29;22.10;86.10
43049;DHT22;28673;44.412;11.918;2024-03-06T11:52:08;22.00;86.40
43049;DHT22;28673;44.412;11.918;2024-03-06T11:54:34;21.90;85.60
43049;DHT22;28673;44.412;11.918;2024-03-06T11:57:02;22.00;85.20
43049;DHT22;28673;44.412;11.918;2024-03-06T11:59:33;22.00;84.60
43049;DHT22;28673;44.412;11.918;2024-03-06T12:02:03;22.00;84.10
43049;DHT22;28673;44.412;11.918;2024-03-06T12:04:34;22.10;84.70
43049;DHT22;28673;44.412;11.918;2024-03-06T12:07:01;22.10;84.00
43049;DHT22;28673;44.412;11.918;2024-03-06T12:09:35;22.20;84.00
43049;DHT22;28673;44.412;11.918;2024-03-06T12:12:01;22.30;83.60
43049;DHT22;28673;44.412;11.918;2024-03-06T12:14:27;22.40;82.60
43049;DHT22;28673;44.412;11.918;2024-03-06T12:16:57;22.50;83.10
43049;DHT22;28673;44.412;11.918;2024-03-06T12:19:31;22.60;80.90
43049;DHT22;28673;44.412;11.918;2024-03-06T12:22:00;22.60;81.90
43049;DHT22;28673;44.412;11.918;2024-03-06T12:24:26;22.80;79.10
43049;DHT22;28673;44.412;11.918;2024-03-06T12:27:07;22.70;79.80
43049;DHT22;28673;44.412;11.918;2024-03-06T12:29:34;22.60;73.00
43049;DHT22;28673;44.412;11.918;2024-03-06T12:32:01;22.50;70.80
43049;DHT22;28673;44.412;11.918;2024-03-06T12:34:27;22.50;76.20
43049;DHT22;28673;44.412;11.918;2024-03-06T12:36:53;22.50;77.50
43049;DHT22;28673;44.412;11.918;2024-03-06T12:39:19;22.70;78.50
43049;DHT22;28673;44.412;11.918;2024-03-06T12:41:52;22.80;77.50
43049;DHT22;28673;44.412;11.918;2024-03-06T12:44:19;22.90;74.30
43049;DHT22;28673;44.412;11.918;2024-03-06T12:46:45;22.90;74.60
43049;DHT22;28673;44.412;11.918;2024-03-06T12:49:11;22.90;76.30
43049;DHT22;28673;44.412;11.918;2024-03-06T12:51:36;22.90;76.00
43049;DHT22;28673;44.412;11.918;2024-03-06T12:54:02;22.80;74.60
43049;DHT22;28673;44.412;11.918;2024-03-06T12:56:32;22.80;75.90
43049;DHT22;28673;44.412;11.918;2024-03-06T12:58:58;22.80;76.30
43049;DHT22;28673;44.412;11.918;2024-03-06T13:01:24;22.70;76.20
43049;DHT22;28673;44.412;11.918;2024-03-06T13:03:49;22.50;76.90
43049;DHT22;28673;44.412;11.918;2024-03-06T13:06:15;22.40;77.00
43049;DHT22;28673;44.412;11.918;2024-03-06T13:08:41;22.30;76.50
43049;DHT22;28673;44.412;11.918;2024-03-06T13:11:07;22.40;76.90
43049;DHT22;28673;44.412;11.918;2024-03-06T13:13:35;22.30;76.60
43049;DHT22;28673;44.412;11.918;2024-03-06T13:16:01;22.40;76.50
43049;DHT22;28673;44.412;11.918;2024-03-06T13:18:26;22.40;76.30
43049;DHT22;28673;44.412;11.918;2024-03-06T13:20:52;22.40;75.90
43049;DHT22;28673;44.412;11.918;2024-03-06T13:23:18;22.40;76.50
43049;DHT22;28673;44.412;11.918;2024-03-06T13:25:44;22.50;75.60
43049;DHT22;28673;44.412;11.918;2024-03-06T13:28:12;22.40;75.70
43049;DHT22;28673;44.412;11.918;2024-03-06T13:30:37;22.40;75.70
43049;DHT22;28673;44.412;11.918;2024-03-06T13:33:05;22.30;76.80
43049;DHT22;28673;44.412;11.918;2024-03-06T13:35:31;22.20;76.90
43049;DHT22;28673;44.412;11.918;2024-03-06T13:37:57;22.20;76.80
43049;DHT22;28673;44.412;11.918;2024-03-06T13:40:22;22.10;76.90
43049;DHT22;28673;44.412;11.918;2024-03-06T13:42:48;22.00;77.20
43049;DHT22;28673;44.412;11.918;2024-03-06T13:45:14;21.80;77.00
43049;DHT22;28673;44.412;11.918;2024-03-06T13:47:43;21.60;76.90
43049;DHT22;28673;44.412;11.918;2024-03-06T13:50:15;21.50;77.30
43049;DHT22;28673;44.412;11.918;2024-03-06T13:52:41;21.30;77.50
43049;DHT22;28673;44.412;11.918;2024-03-06T13:55:07;21.10;77.90
43049;DHT22;28673;44.412;11.918;2024-03-06T13:57:34;20.80;78.30
43049;DHT22;28673;44.412;11.918;2024-03-06T14:00:05;20.70;78.80
43049;DHT22;28673;44.412;11.918;2024-03-06T14:02:37;20.50;79.30
43049;DHT22;28673;44.412;11.918;2024-03-06T14:05:03;20.30;79.40
43049;DHT22;28673;44.412;11.918;2024-03-06T14:07:29;20.10;80.00
43049;DHT22;28673;44.412;11.918;2024-03-06T14:09:55;19.90;80.20
43049;DHT22;28673;44.412;11.918;2024-03-06T14:12:22;19.80;80.40
43049;DHT22;28673;44.412;11.918;2024-03-06T14:14:49;19.60;80.40
43049;DHT22;28673;44.412;11.918;2024-03-06T14:17:15;19.40;80.70
43049;DHT22;28673;44.412;11.918;2024-03-06T14:19:40;19.30;80.70
43049;DHT22;28673;44.412;11.918;2024-03-06T14:22:07;19.20;81.40
43049;DHT22;28673;44.412;11.918;2024-03-06T14:24:33;19.00;81.50
43049;DHT22;28673;44.412;11.918;2024-03-06T14:26:59;18.90;81.90
43049;DHT22;28673;44.412;11.918;2024-03-06T14:29:25;18.80;82.10
43049;DHT22;28673;44.412;11.918;2024-03-06T14:31:54;18.60;82.20
43049;DHT22;28673;44.412;11.918;2024-03-06T14:34:20;18.60;82.30
43049;DHT22;28673;44.412;11.918;2024-03-06T14:36:52;18.40;82.50
43049;DHT22;28673;44.412;11.918;2024-03-06T14:39:19;18.40;82.80
43049;DHT22;28673;44.412;11.918;2024-03-06T14:41:48;18.20;82.60
43049;DHT22;28673;44.412;11.918;2024-03-06T14:44:14;18.10;83.30
43049;DHT22;28673;44.412;11.918;2024-03-06T14:46:40;18.00;83.70
43049;DHT22;28673;44.412;11.918;2024-03-06T14:49:07;17.80;84.00
43049;DHT22;28673;44.412;11.918;2024-03-06T14:51:34;17.60;85.10
43049;DHT22;28673;44.412;11.918;2024-03-06T14:54:00;17.50;84.90
43049;DHT22;28673;44.412;11.918;2024-03-06T14:56:26;17.20;85.90
43049;DHT22;28673;44.412;11.918;2024-03-06T14:58:52;16.90;86.70
43049;DHT22;28673;44.412;11.918;2024-03-06T15:01:18;16.60;87.50
43049;DHT22;28673;44.412;11.918;2024-03-06T15:03:44;16.20;88.30
43049;DHT22;28673;44.412;11.918;2024-03-06T15:06:14;16.10;88.70
43049;DHT22;28673;44.412;11.918;2024-03-06T15:08:40;16.00;89.60
43049;DHT22;28673;44.412;11.918;2024-03-06T15:11:06;15.90;89.60
43049;DHT22;28673;44.412;11.918;2024-03-06T15:13:32;15.80;90.00
43049;DHT22;28673;44.412;11.918;2024-03-06T15:15:59;15.70;90.20
43049;DHT22;28673;44.412;11.918;2024-03-06T15:18:24;15.60;90.80
43049;DHT22;28673;44.412;11.918;2024-03-06T15:20:51;15.50;90.50
43049;DHT22;28673;44.412;11.918;2024-03-06T15:23:17;15.50;90.80
43049;DHT22;28673;44.412;11.918;2024-03-06T15:25:43;15.50;91.10
43049;DHT22;28673;44.412;11.918;2024-03-06T15:28:10;15.50;91.20
43049;DHT22;28673;44.412;11.918;2024-03-06T15:30:37;15.50;91.20